Time;durP1;ratioP1;P1;durP2;ratioP2;P2;SDS_P1;SDS_P2;PMS_P1;PMS_P2;Temp;Humidity;BMP_temperature;BMP_pressure;BME280_temperature;BME280_humidity;BME280_pressure;Samples;Min_cycle;Max_cycle;Signal;HPM_P1;HPM_P2
2024/01/09 00:02:24;;;;;;;13.80;8.50;;;;;;;-4.92;100.00;98966.38;5114403;28;20435;-74
2024/01/09 00:04:56;;;;;;;11.87;8.13;;;;;;;-4.97;100.00;98964.06;5113910;28;20427;-74
2024/01/09 00:07:25;;;;;;;11.60;7.50;;;;;;;-4.88;100.00;98966.03;5113934;28;20459;-74
2024/01/09 00:09:55;;;;;;;12.47;8.07;;;;;;;-4.90;100.00;98973.09;5113794;28;20529;-74
2024/01/09 00:12:24;;;;;;;12.27;7.83;;;;;;;-4.94;100.00;98969.06;5114259;28;20831;-74
2024/01/09 00:15:03;;;;;;;13.23;8.90;;;;;;;-4.91;100.00;98960.25;5114121;28;20427;-74
2024/01/09 00:17:29;;;;;;;10.70;7.57;;;;;;;-4.91;100.00;98965.44;5113984;28;20423;-74
2024/01/09 00:19:57;;;;;;;11.83;8.33;;;;;;;-4.97;100.00;98966.66;5113728;28;20534;-74
2024/01/09 00:22:29;;;;;;;12.43;8.03;;;;;;;-4.92;100.00;98966.38;5113785;28;20535;-74
2024/01/09 00:25:03;;;;;;;10.83;7.77;;;;;;;-4.93;100.00;98972.50;5113763;28;20511;-74
2024/01/09 00:27:33;;;;;;;11.37;7.30;;;;;;;-4.94;100.00;98965.63;5113861;28;20554;-74
2024/01/09 00:30:01;;;;;;;13.23;7.80;;;;;;;-4.97;100.00;98960.66;5113605;28;20509;-74
2024/01/09 00:32:31;;;;;;;10.53;7.77;;;;;;;-5.00;100.00;98961.69;5113615;28;20439;-74
2024/01/09 00:35:02;;;;;;;10.93;7.67;;;;;;;-5.04;100.00;98960.22;5113562;28;20436;-74
2024/01/09 00:37:36;;;;;;;15.00;8.80;;;;;;;-5.03;100.00;98961.03;5113287;28;20440;-74
2024/01/09 00:40:08;;;;;;;11.87;7.20;;;;;;;-5.02;100.00;98962.72;5113332;28;20459;-74
2024/01/09 00:42:36;;;;;;;11.53;8.20;;;;;;;-5.08;100.00;98961.34;5113551;28;20461;-74
2024/01/09 00:45:07;;;;;;;11.23;7.43;;;;;;;-5.10;100.00;98960.63;5113508;28;20461;-74
2024/01/09 00:47:35;;;;;;;12.07;8.40;;;;;;;-5.11;100.00;98958.94;5116340;28;21003;-74
2024/01/09 00:50:01;;;;;;;12.50;8.60;;;;;;;-5.17;100.00;98961.94;5117999;28;20451;-74
2024/01/09 00:52:28;;;;;;;13.67;8.70;;;;;;;-5.08;100.00;98960.50;5118116;28;20431;-74
2024/01/09 00:54:54;;;;;;;14.00;8.67;;;;;;;-5.17;100.00;98959.38;5118039;28;20427;-74
2024/01/09 00:57:21;;;;;;;15.00;8.43;;;;;;;-5.15;100.00;98957.47;5118055;28;20453;-74
2024/01/09 00:59:47;;;;;;;13.87;9.30;;;;;;;-5.17;100.00;98964.53;5117629;28;20455;-74
2024/01/09 01:02:16;;;;;;;12.37;7.97;;;;;;;-5.14;100.00;98961.75;5119022;28;20443;-74
2024/01/09 01:04:49;;;;;;;12.93;9.03;;;;;;;-5.13;100.00;98960.81;5117504;28;20440;-74
2024/01/09 01:07:17;;;;;;;10.07;7.93;;;;;;;-5.15;100.00;98952.31;5117423;28;20554;-74
2024/01/09 01:09:53;;;;;;;13.63;9.03;;;;;;;-5.14;100.00;98964.34;5117323;28;20869;-74
2024/01/09 01:12:20;;;;;;;15.63;8.67;;;;;;;-5.16;100.00;98966.19;5117242;28;20786;-74
2024/01/09 01:14:47;;;;;;;13.70;9.47;;;;;;;-5.18;100.00;98965.47;5117577;28;20449;-74
2024/01/09 01:17:14;;;;;;;12.40;8.13;;;;;;;-5.11;100.00;98963.31;5117687;28;20429;-74
2024/01/09 01:19:41;;;;;;;13.17;8.83;;;;;;;-5.17;100.00;98961.94;5117171;28;20516;-74
2024/01/09 01:22:08;;;;;;;12.83;8.93;;;;;;;-5.23;100.00;98970.13;5117239;28;20550;-74
2024/01/09 01:24:34;;;;;;;12.37;8.67;;;;;;;-5.19;100.00;98976.78;5117518;28;20427;-74
2024/01/09 01:27:00;;;;;;;12.53;8.00;;;;;;;-5.22;100.00;98976.13;5117323;28;20478;-74
2024/01/09 01:29:27;;;;;;;13.20;8.80;;;;;;;-5.19;100.00;98986.31;5117305;28;20453;-74
2024/01/09 01:31:54;;;;;;;10.13;7.30;;;;;;;-5.13;100.00;98975.53;5117313;28;20435;-74
2024/01/09 01:34:20;;;;;;;12.67;7.37;;;;;;;-5.24;100.00;98978.00;5117499;28;20435;-74
2024/01/09 01:36:46;;;;;;;13.40;8.77;;;;;;;-5.26;100.00;98975.50;5117442;28;20442;-74
2024/01/09 01:39:13;;;;;;;12.27;8.13;;;;;;;-5.22;100.00;98979.56;5117235;28;20455;-74
2024/01/09 01:41:40;;;;;;;12.30;8.63;;;;;;;-5.29;100.00;98978.28;5117091;28;20435;-74
2024/01/09 01:44:16;;;;;;;12.03;8.23;;;;;;;-5.24;100.00;98978.00;5117324;28;20435;-74
2024/01/09 01:46:44;;;;;;;11.53;7.97;;;;;;;-5.24;100.00;98984.00;5116626;28;20481;-74
2024/01/09 01:49:13;;;;;;;12.20;8.77;;;;;;;-5.27;100.00;98984.22;5117054;28;20447;-74
2024/01/09 01:51:41;;;;;;;12.03;8.00;;;;;;;-5.24;100.00;98978.81;5117605;28;20439;-74
2024/01/09 01:54:07;;;;;;;11.43;8.00;;;;;;;-5.31;100.00;98981.91;5116687;28;20934;-74
2024/01/09 01:56:35;;;;;;;15.03;9.20;;;;;;;-5.34;100.00;98987.31;5116578;28;20918;-74
2024/01/09 01:59:03;;;;;;;10.17;8.20;;;;;;;-5.33;100.00;98988.97;5115797;28;20424;-74
2024/01/09 02:01:30;;;;;;;12.07;8.67;;;;;;;-5.35;100.00;98986.47;5116791;27;20439;-74
2024/01/09 02:03:57;;;;;;;11.97;7.93;;;;;;;-5.31;100.00;98990.53;5116793;28;20432;-74
2024/01/09 02:06:24;;;;;;;12.87;8.23;;;;;;;-5.27;100.00;98983.38;5116330;28;20528;-74
2024/01/09 02:08:50;;;;;;;12.40;8.57;;;;;;;-5.27;100.00;98971.25;5116618;28;20427;-74
2024/01/09 02:11:17;;;;;;;11.17;8.47;;;;;;;-5.27;100.00;98979.03;5116466;28;20530;-74
2024/01/09 02:13:44;;;;;;;12.90;8.27;;;;;;;-5.31;100.00;98990.53;5116267;28;20926;-74
2024/01/09 02:16:10;;;;;;;12.67;9.50;;;;;;;-5.36;100.00;98983.97;5116458;28;20431;-74
2024/01/09 02:18:37;;;;;;;15.07;9.30;;;;;;;-5.31;100.00;98990.53;5116390;28;20438;-74
2024/01/09 02:21:03;;;;;;;15.10;8.73;;;;;;;-5.40;100.00;98985.94;5116312;28;20508;-74
2024/01/09 02:23:29;;;;;;;11.77;8.60;;;;;;;-5.40;100.00;98982.50;5116039;28;20911;-74
2024/01/09 02:25:56;;;;;;;10.93;8.60;;;;;;;-5.38;100.00;98983.25;5115942;28;20431;-74
2024/01/09 02:28:30;;;;;;;11.57;8.47;;;;;;;-5.33;100.00;98987.19;5116136;28;20557;-74
2024/01/09 02:30:57;;;;;;;12.70;9.07;;;;;;;-5.35;100.00;98983.88;5115910;28;20465;-74
2024/01/09 02:33:25;;;;;;;11.10;7.77;;;;;;;-5.34;100.00;98969.97;5116102;28;20431;-73
2024/01/09 02:35:51;;;;;;;12.73;7.87;;;;;;;-5.31;100.00;98976.72;5115713;28;20438;-73
2024/01/09 02:38:18;;;;;;;14.53;9.27;;;;;;;-5.42;100.00;98979.19;5116000;28;20439;-73
2024/01/09 02:40:44;;;;;;;13.17;8.27;;;;;;;-5.43;100.00;98977.53;5115940;28;20451;-73
2024/01/09 02:43:10;;;;;;;13.17;8.60;;;;;;;-5.44;100.00;98974.09;5115900;28;20432;-73
2024/01/09 02:45:37;;;;;;;13.57;8.63;;;;;;;-5.40;100.00;98970.38;5115922;28;20435;-73
2024/01/09 02:48:04;;;;;;;14.93;8.17;;;;;;;-5.38;100.00;98965.09;5115534;28;20562;-74
2024/01/09 02:50:30;;;;;;;12.50;8.10;;;;;;;-5.43;100.00;98967.16;5115506;28;20815;-74
2024/01/09 02:52:56;;;;;;;13.17;8.90;;;;;;;-5.42;100.00;98972.22;5115777;28;20435;-74
2024/01/09 02:55:23;;;;;;;12.47;9.30;;;;;;;-5.46;100.00;98968.19;5115707;28;20442;-74
2024/01/09 02:57:49;;;;;;;13.77;8.33;;;;;;;-5.46;100.00;98960.41;5115606;28;20436;-74
2024/01/09 03:00:16;;;;;;;11.17;8.10;;;;;;;-5.46;100.00;98957.81;5115548;28;20451;-74
2024/01/09 03:02:42;;;;;;;13.40;8.57;;;;;;;-5.45;100.00;98963.81;5115317;28;20795;-74
2024/01/09 03:05:09;;;;;;;13.67;9.00;;;;;;;-5.47;100.00;98965.69;5115549;28;20431;-74
2024/01/09 03:07:35;;;;;;;12.20;8.57;;;;;;;-5.40;100.00;98956.59;5115497;28;20528;-74
2024/01/09 03:10:02;;;;;;;13.23;7.57;;;;;;;-5.40;100.00;98961.75;5114948;28;20989;-74
2024/01/09 03:12:29;;;;;;;13.17;8.03;;;;;;;-5.47;100.00;98961.31;5116233;28;20445;-74
2024/01/09 03:14:55;;;;;;;15.97;8.57;;;;;;;-5.45;100.00;98964.66;5115330;28;20801;-74
2024/01/09 03:17:22;;;;;;;11.17;8.33;;;;;;;-5.52;100.00;98963.38;5115319;28;20480;-74
2024/01/09 03:19:48;;;;;;;12.60;8.20;;;;;;;-5.52;100.00;98957.38;5115265;28;20447;-74
2024/01/09 03:22:15;;;;;;;12.63;8.50;;;;;;;-5.48;100.00;98959.66;5114979;28;20443;-74
2024/01/09 03:24:41;;;;;;;12.33;8.50;;;;;;;-5.56;100.00;98959.31;5115032;28;20428;-74
2024/01/09 03:27:07;;;;;;;15.87;8.67;;;;;;;-5.62;100.00;98957.13;5114899;28;20479;-74
2024/01/09 03:29:34;;;;;;;12.67;8.20;;;;;;;-5.52;100.00;98963.38;5114866;28;20447;-74
2024/01/09 03:32:00;;;;;;;13.37;8.73;;;;;;;-5.53;100.00;98966.91;5114921;28;20509;-74
2024/01/09 03:34:26;;;;;;;12.97;8.50;;;;;;;-5.55;100.00;98958.41;5114884;28;20431;-74
2024/01/09 03:36:53;;;;;;;14.10;8.50;;;;;;;-5.54;100.00;98962.66;5114822;28;20436;-74
2024/01/09 03:39:19;;;;;;;14.97;8.57;;;;;;;-5.53;100.00;98960.88;5114776;28;20443;-74
2024/01/09 03:41:46;;;;;;;14.57;8.77;;;;;;;-5.54;100.00;98964.41;5114766;28;20439;-74
2024/01/09 03:44:13;;;;;;;11.87;8.23;;;;;;;-5.51;100.00;98959.88;5114791;28;20444;-74
2024/01/09 03:46:39;;;;;;;13.43;8.97;;;;;;;-5.47;100.00;98957.91;5114865;28;20427;-74
2024/01/09 03:49:06;;;;;;;12.53;7.30;;;;;;;-5.47;100.00;98960.50;5114895;28;20479;-74
2024/01/09 03:51:32;;;;;;;12.73;8.83;;;;;;;-5.45;100.00;98963.81;5114264;28;20930;-74
2024/01/09 03:53:59;;;;;;;14.67;9.07;;;;;;;-5.53;100.00;98961.72;5114615;28;20468;-74
2024/01/09 03:56:24;;;;;;;11.20;8.10;;;;;;;-5.52;100.00;98955.59;5114586;28;20526;-74
2024/01/09 03:58:52;;;;;;;11.20;8.37;;;;;;;-5.55;100.00;98953.22;5114485;28;20460;-74
2024/01/09 04:01:19;;;;;;;11.97;7.83;;;;;;;-5.58;100.00;98957.75;5114539;28;20203;-74
2024/01/09 04:03:45;;;;;;;12.37;8.83;;;;;;;-5.55;100.00;98958.41;5114365;28;20435;-74
2024/01/09 04:06:12;;;;;;;15.30;8.73;;;;;;;-5.53;100.00;98955.69;5114280;28;20482;-73
2024/01/09 04:08:38;;;;;;;12.77;7.20;;;;;;;-5.49;100.00;98958.00;5113859;28;21007;-73
2024/01/09 04:11:05;;;;;;;14.47;9.23;;;;;;;-5.57;100.00;98955.06;5113875;28;20451;-73
2024/01/09 04:13:31;;;;;;;11.70;7.73;;;;;;;-5.46;100.00;98957.81;5114268;28;20463;-73
2024/01/09 04:15:58;;;;;;;13.47;8.60;;;;;;;-5.54;100.00;98964.41;5113755;28;20934;-73
2024/01/09 04:18:24;;;;;;;12.47;8.50;;;;;;;-5.54;100.00;98960.06;5114128;28;20438;-73
2024/01/09 04:20:50;;;;;;;12.87;8.43;;;;;;;-5.58;100.00;98956.00;5113282;28;20455;-73
2024/01/09 04:23:17;;;;;;;15.17;7.97;;;;;;;-5.53;100.00;98959.13;5114154;28;20445;-73
2024/01/09 04:25:43;;;;;;;13.00;8.73;;;;;;;-5.59;100.00;98963.88;5114212;28;20432;-73
2024/01/09 04:28:09;;;;;;;9.63;7.07;;;;;;;-5.57;100.00;98965.44;5113919;28;20475;-74
2024/01/09 04:30:36;;;;;;;13.77;8.60;;;;;;;-5.51;100.00;98962.47;5113777;28;20457;-74
2024/01/09 04:33:02;;;;;;;12.93;7.97;;;;;;;-5.55;100.00;98963.59;5113933;28;20450;-74
2024/01/09 04:35:29;;;;;;;14.20;8.20;;;;;;;-5.50;100.00;98958.94;5113517;28;20435;-73
2024/01/09 04:37:55;;;;;;;13.13;7.27;;;;;;;-5.49;100.00;98968.38;5113722;28;20428;-73
2024/01/09 04:40:21;;;;;;;12.03;7.53;;;;;;;-5.49;100.00;98964.94;5113826;28;20455;-73
2024/01/09 04:42:48;;;;;;;12.10;7.87;;;;;;;-5.57;100.00;98962.03;5113769;28;20439;-73
2024/01/09 04:45:14;;;;;;;12.77;7.77;;;;;;;-5.59;100.00;98961.28;5113819;28;20427;-73
2024/01/09 04:47:40;;;;;;;12.53;7.47;;;;;;;-5.62;100.00;98966.66;5113668;28;20478;-73
2024/01/09 04:50:07;;;;;;;12.13;8.13;;;;;;;-5.60;100.00;98967.41;5113606;28;20455;-73
2024/01/09 04:52:36;;;;;;;12.03;7.90;;;;;;;-5.58;100.00;98970.72;5113156;28;20918;-73
2024/01/09 04:55:03;;;;;;;11.47;7.87;;;;;;;-5.57;100.00;98962.84;5113775;28;20797;-73
2024/01/09 04:57:29;;;;;;;12.40;7.40;;;;;;;-5.60;100.00;98960.47;5113630;28;20427;-73
2024/01/09 04:59:55;;;;;;;13.83;7.33;;;;;;;-5.62;100.00;98959.72;5113497;28;20455;-73
2024/01/09 05:02:22;;;;;;;12.03;7.57;;;;;;;-5.67;100.00;98953.16;5113398;28;20458;-73
2024/01/09 05:04:48;;;;;;;12.43;7.17;;;;;;;-5.64;100.00;98961.59;5113305;28;20434;-73
2024/01/09 05:07:14;;;;;;;11.77;7.20;;;;;;;-5.66;100.00;98963.44;5113275;28;20446;-73
2024/01/09 05:09:41;;;;;;;15.90;7.90;;;;;;;-5.69;100.00;98958.47;5113127;28;20463;-73
2024/01/09 05:12:07;;;;;;;12.17;7.67;;;;;;;-5.65;100.00;98959.91;5112829;28;20961;-73
2024/01/09 05:14:34;;;;;;;12.47;7.97;;;;;;;-5.63;100.00;98965.84;5113321;28;20427;-73
2024/01/09 05:17:00;;;;;;;10.97;7.10;;;;;;;-5.68;100.00;98959.28;5113208;28;20431;-73
2024/01/09 05:19:27;;;;;;;13.17;7.63;;;;;;;-5.69;100.00;98966.22;5113450;28;20451;-73
2024/01/09 05:21:53;;;;;;;11.90;7.13;;;;;;;-5.64;100.00;98964.19;5112737;28;20498;-73
2024/01/09 05:24:20;;;;;;;13.60;7.77;;;;;;;-5.67;100.00;98969.53;5112912;28;20432;-73
2024/01/09 05:26:46;;;;;;;11.97;7.40;;;;;;;-5.65;100.00;98962.50;5113183;28;20443;-73
2024/01/09 05:29:13;;;;;;;13.77;6.93;;;;;;;-5.65;100.00;98961.69;5113318;28;20479;-73
2024/01/09 05:31:44;;;;;;;13.63;7.67;;;;;;;-5.69;100.00;98968.81;5113453;28;20431;-73
2024/01/09 05:34:11;;;;;;;13.50;7.03;;;;;;;-5.76;100.00;98966.69;5115328;28;20476;-73
2024/01/09 05:36:37;;;;;;;10.97;6.80;;;;;;;-5.74;100.00;98954.50;5116881;28;20901;-73
2024/01/09 05:39:04;;;;;;;11.37;7.03;;;;;;;-5.69;100.00;98961.06;5116823;28;20480;-73
2024/01/09 05:41:30;;;;;;;13.07;7.53;;;;;;;-5.73;100.00;98964.75;5116586;28;20427;-73
2024/01/09 05:43:57;;;;;;;13.47;8.10;;;;;;;-5.74;100.00;98970.84;5116944;28;20435;-73
2024/01/09 05:46:24;;;;;;;12.23;6.23;;;;;;;-5.71;100.00;98972.41;5116145;28;20435;-73
2024/01/09 05:48:50;;;;;;;10.23;7.20;;;;;;;-5.72;100.00;98971.59;5116705;28;20467;-73
2024/01/09 05:51:17;;;;;;;10.47;7.40;;;;;;;-5.67;100.00;98974.72;5116449;28;20431;-73
2024/01/09 05:53:45;;;;;;;12.93;7.63;;;;;;;-5.69;100.00;98974.00;5116463;28;20431;-73
2024/01/09 05:56:11;;;;;;;11.33;7.47;;;;;;;-5.75;100.00;98970.97;5116411;28;20432;-73
2024/01/09 05:58:37;;;;;;;11.17;7.03;;;;;;;-5.69;100.00;98966.22;5115953;28;20436;-73
2024/01/09 06:01:04;;;;;;;13.07;7.57;;;;;;;-5.71;100.00;98975.84;5116137;28;20542;-73
2024/01/09 06:03:30;;;;;;;10.97;6.63;;;;;;;-5.65;100.00;98969.44;5116052;28;20938;-73
2024/01/09 06:05:57;;;;;;;12.50;8.10;;;;;;;-5.68;100.00;98972.22;5116102;28;20484;-73
2024/01/09 06:08:24;;;;;;;12.23;7.67;;;;;;;-5.72;100.00;98975.94;5115702;28;20477;-73
2024/01/09 06:10:50;;;;;;;12.63;7.00;;;;;;;-5.75;100.00;98978.72;5115996;28;20538;-73
2024/01/09 06:13:17;;;;;;;11.87;7.20;;;;;;;-5.77;100.00;98977.97;5115695;28;20431;-73
2024/01/09 06:15:43;;;;;;;11.27;6.73;;;;;;;-5.75;100.00;98982.13;5115808;28;20467;-73
2024/01/09 06:18:09;;;;;;;10.17;7.20;;;;;;;-5.74;100.00;98978.59;5116396;28;20438;-74
2024/01/09 06:20:36;;;;;;;11.73;7.57;;;;;;;-5.69;100.00;98983.50;5115999;28;20477;-73
2024/01/09 06:23:03;;;;;;;11.43;6.67;;;;;;;-5.68;100.00;98978.25;5115683;28;20451;-73
2024/01/09 06:25:29;;;;;;;10.67;6.37;;;;;;;-5.73;100.00;98989.81;5115873;28;20441;-73
2024/01/09 06:27:55;;;;;;;13.97;7.80;;;;;;;-5.72;100.00;98979.34;5115151;28;20834;-73
2024/01/09 06:30:22;;;;;;;11.87;7.83;;;;;;;-5.69;100.00;98984.34;5115694;28;20821;-74
2024/01/09 06:32:49;;;;;;;12.53;7.23;;;;;;;-5.69;100.00;98988.69;5115593;28;20501;-73
2024/01/09 06:35:15;;;;;;;13.50;7.50;;;;;;;-5.71;100.00;98995.72;5115386;28;20440;-73
2024/01/09 06:37:43;;;;;;;11.50;6.70;;;;;;;-5.69;100.00;98984.34;5115297;28;20434;-73
2024/01/09 06:40:10;;;;;;;11.23;6.63;;;;;;;-5.76;100.00;98985.66;5115401;28;20455;-73
2024/01/09 06:42:37;;;;;;;12.73;8.33;;;;;;;-5.77;100.00;98988.34;5115368;28;20467;-73
2024/01/09 06:45:03;;;;;;;11.43;7.63;;;;;;;-5.74;100.00;98983.78;5114191;28;20431;-74
2024/01/09 06:47:29;;;;;;;12.57;6.47;;;;;;;-5.70;100.00;98987.03;5115252;28;20439;-74
2024/01/09 06:49:56;;;;;;;12.77;7.10;;;;;;;-5.80;100.00;98999.72;5114972;28;20455;-74
2024/01/09 06:52:22;;;;;;;10.83;7.57;;;;;;;-5.80;100.00;99002.31;5115258;28;20428;-74
2024/01/09 06:54:48;;;;;;;10.77;6.80;;;;;;;-5.80;100.00;98991.94;5114800;28;20444;-74
2024/01/09 06:57:15;;;;;;;13.30;7.70;;;;;;;-5.79;100.00;99000.56;5115037;28;20446;-74
2024/01/09 06:59:44;;;;;;;13.27;7.87;;;;;;;-5.84;100.00;99011.22;5115196;28;20451;-74
2024/01/09 07:02:11;;;;;;;10.07;6.63;;;;;;;-5.81;100.00;99008.44;5115105;28;20435;-74
2024/01/09 07:04:37;;;;;;;11.20;7.10;;;;;;;-5.83;100.00;99006.88;5115067;28;20458;-74
2024/01/09 07:07:03;;;;;;;10.33;6.97;;;;;;;-5.79;100.00;99009.13;5114292;28;20953;-74
2024/01/09 07:09:30;;;;;;;10.37;6.87;;;;;;;-5.74;100.00;98999.31;5114664;28;20479;-74
2024/01/09 07:11:56;;;;;;;13.77;8.07;;;;;;;-5.80;100.00;99009.25;5114777;28;20431;-74
2024/01/09 07:14:23;;;;;;;12.53;7.30;;;;;;;-5.80;100.00;99006.66;5115366;28;20441;-74
2024/01/09 07:16:49;;;;;;;11.53;7.07;;;;;;;-5.79;100.00;99006.53;5114831;28;20446;-74
2024/01/09 07:19:15;;;;;;;11.93;7.27;;;;;;;-5.77;100.00;99007.31;5114343;28;20456;-74
2024/01/09 07:21:42;;;;;;;11.00;6.90;;;;;;;-5.78;100.00;99008.22;5114539;28;20496;-74
2024/01/09 07:24:08;;;;;;;13.77;8.10;;;;;;;-5.78;100.00;99008.22;5114483;28;20467;-74
2024/01/09 07:26:41;;;;;;;11.10;7.13;;;;;;;-5.80;100.00;99012.66;5114486;28;20436;-74
2024/01/09 07:29:08;;;;;;;13.57;8.27;;;;;;;-5.85;100.00;99012.16;5114066;28;20993;-74
2024/01/09 07:31:34;;;;;;;12.40;7.17;;;;;;;-5.80;100.00;99010.06;5113847;28;20428;-74
2024/01/09 07:34:01;;;;;;;13.13;7.47;;;;;;;-5.71;100.00;99000.88;5113926;28;20435;-74
2024/01/09 07:36:27;;;;;;;13.70;7.93;;;;;;;-5.71;100.00;99004.31;5114274;28;20460;-74
2024/01/09 07:38:54;;;;;;;10.33;6.83;;;;;;;-5.68;100.00;99006.72;5114106;28;20802;-74
2024/01/09 07:41:20;;;;;;;12.70;7.47;;;;;;;-5.75;100.00;99018.38;5114446;28;20435;-74
2024/01/09 07:43:46;;;;;;;12.43;8.27;;;;;;;-5.70;100.00;99011.16;5114406;28;20440;-75
2024/01/09 07:46:13;;;;;;;12.70;7.67;;;;;;;-5.68;100.00;99021.44;5113751;28;20439;-74
2024/01/09 07:48:39;;;;;;;10.27;7.17;;;;;;;-5.68;100.00;99026.59;5113515;28;20794;-74
2024/01/09 07:51:05;;;;;;;14.67;8.40;;;;;;;-5.62;100.00;99019.28;5113635;28;20816;-74
2024/01/09 07:53:32;;;;;;;12.20;7.80;;;;;;;-5.58;100.00;99025.94;5113829;28;20445;-74
2024/01/09 07:55:58;;;;;;;11.93;7.50;;;;;;;-5.45;100.00;99026.84;5112932;28;20435;-74
2024/01/09 07:58:25;;;;;;;12.23;7.63;;;;;;;-5.40;100.00;99031.72;5113990;28;20451;-74
2024/01/09 08:00:51;;;;;;;14.33;7.50;;;;;;;-5.37;100.00;99024.59;5113735;28;20451;-74
2024/01/09 08:03:17;;;;;;;13.43;7.80;;;;;;;-5.43;100.00;99026.75;5113736;28;20431;-74
2024/01/09 08:05:44;;;;;;;10.40;7.57;;;;;;;-5.33;100.00;99026.06;5113788;28;20463;-74
2024/01/09 08:08:11;;;;;;;10.93;7.60;;;;;;;-5.33;100.00;99035.59;5113696;28;20470;-74
2024/01/09 08:10:37;;;;;;;12.47;8.40;;;;;;;-5.40;100.00;99037.75;5114034;28;20456;-74
2024/01/09 08:13:04;;;;;;;11.97;7.03;;;;;;;-5.32;100.00;99032.91;5113567;28;20488;-74
2024/01/09 08:15:31;;;;;;;11.93;7.00;;;;;;;-5.32;100.00;99032.91;5113680;28;20777;-74
2024/01/09 08:17:57;;;;;;;12.53;7.77;;;;;;;-5.34;100.00;99031.34;5113375;28;20907;-74
2024/01/09 08:20:23;;;;;;;11.00;7.27;;;;;;;-5.35;100.00;99035.69;5113933;28;20447;-74
2024/01/09 08:22:50;;;;;;;12.40;7.57;;;;;;;-5.35;100.00;99034.84;5113896;28;20550;-74
2024/01/09 08:25:16;;;;;;;10.43;7.23;;;;;;;-5.42;100.00;99033.59;5113452;28;20440;-74
2024/01/09 08:27:42;;;;;;;12.70;7.70;;;;;;;-5.37;100.00;99036.72;5113254;28;20441;-74
2024/01/09 08:30:10;;;;;;;12.27;7.37;;;;;;;-5.31;100.00;99031.97;5113228;28;20483;-74
2024/01/09 08:32:39;;;;;;;13.40;7.97;;;;;;;-5.28;100.00;99033.56;5113996;28;20472;-74
2024/01/09 08:35:05;;;;;;;13.37;7.53;;;;;;;-5.29;100.00;99029.31;5113772;28;20514;-74
2024/01/09 08:37:32;;;;;;;12.10;7.37;;;;;;;-5.21;100.00;99021.88;5113479;28;20434;-74
2024/01/09 08:39:58;;;;;;;14.17;8.30;;;;;;;-5.20;100.00;99026.13;5113382;28;20477;-74
2024/01/09 08:42:24;;;;;;;13.03;7.97;;;;;;;-5.29;100.00;99027.53;5113688;28;20442;-74
2024/01/09 08:44:51;;;;;;;12.23;7.10;;;;;;;-5.13;100.00;99037.75;5113445;28;20457;-74
2024/01/09 08:47:17;;;;;;;13.40;7.27;;;;;;;-5.12;100.00;99031.66;5113715;28;20773;-74
2024/01/09 08:49:44;;;;;;;12.23;7.93;;;;;;;-5.03;100.00;99029.28;5112964;28;20880;-74
2024/01/09 08:52:11;;;;;;;11.77;7.87;;;;;;;-5.06;100.00;99028.66;5112976;28;20798;-74
2024/01/09 08:54:37;;;;;;;10.67;7.23;;;;;;;-4.81;100.00;99031.31;5113537;28;20440;-74
2024/01/09 08:57:05;;;;;;;14.67;8.20;;;;;;;-4.80;100.00;99031.22;5113686;28;20454;-74
2024/01/09 08:59:31;;;;;;;11.17;6.97;;;;;;;-4.71;100.00;99029.81;5113473;28;20495;-74
2024/01/09 09:01:57;;;;;;;12.90;7.87;;;;;;;-4.70;100.00;99044.44;5113149;28;20431;-74
2024/01/09 09:04:24;;;;;;;11.97;7.60;;;;;;;-4.69;100.00;99040.91;5113305;28;20508;-74
2024/01/09 09:06:49;;;;;;;12.80;7.77;;;;;;;-4.55;100.00;99040.81;5113192;28;20436;-73
2024/01/09 09:09:16;;;;;;;11.90;8.53;;;;;;;-4.45;100.00;99036.66;5116703;28;21035;-73
2024/01/09 09:11:42;;;;;;;12.07;7.73;;;;;;;-4.47;100.00;99039.34;5117254;28;20199;-73
2024/01/09 09:14:08;;;;;;;14.00;8.93;;;;;;;-4.41;100.00;99033.78;5117562;28;20451;-73
2024/01/09 09:16:36;;;;;;;11.47;8.13;;;;;;;-4.36;100.00;99028.28;5117184;28;20435;-73
2024/01/09 09:19:02;;;;;;;11.43;7.57;;;;;;;-4.20;100.00;99037.50;5117176;28;20435;-73
2024/01/09 09:21:29;;;;;;;11.33;7.80;;;;;;;-4.02;100.00;99038.84;5117200;27;20455;-73
2024/01/09 09:23:55;;;;;;;13.27;8.93;;;;;;;-3.58;100.00;99035.78;5117208;27;20426;-75
2024/01/09 09:26:21;;;;;;;12.90;8.43;;;;;;;-3.39;99.50;99036.97;5117001;28;20435;-75
2024/01/09 09:28:48;;;;;;;13.77;8.93;;;;;;;-3.34;99.71;99034.88;5116872;28;20486;-74
2024/01/09 09:31:15;;;;;;;15.17;8.30;;;;;;;-3.50;98.87;99034.31;5117149;28;20455;-74
2024/01/09 09:33:44;;;;;;;13.03;8.20;;;;;;;-3.47;99.99;99041.91;5117098;28;20530;-74
2024/01/09 09:36:13;;;;;;;13.90;8.50;;;;;;;-3.33;97.86;99031.38;5116842;28;20441;-74
2024/01/09 09:38:39;;;;;;;12.63;8.00;;;;;;;-3.40;99.96;99027.53;5116848;27;20457;-74
2024/01/09 09:41:15;;;;;;;15.23;8.97;;;;;;;-3.51;100.00;99035.28;5116697;28;20447;-74
2024/01/09 09:43:49;;;;;;;14.47;8.00;;;;;;;-3.42;96.61;99028.56;5116718;28;20419;-74
2024/01/09 09:46:22;;;;;;;13.53;8.47;;;;;;;-3.46;99.51;99030.56;5117212;28;20415;-74
2024/01/09 09:48:51;;;;;;;13.50;8.63;;;;;;;-3.30;97.38;99035.53;5116557;28;20463;-74
2024/01/09 09:51:18;;;;;;;14.53;8.93;;;;;;;-3.36;100.00;99028.97;5116308;28;20470;-74
2024/01/09 09:53:44;;;;;;;14.17;8.07;;;;;;;-3.36;96.80;99026.38;5116553;28;20437;-74
2024/01/09 09:56:14;;;;;;;15.13;8.27;;;;;;;-3.21;98.01;99029.66;5116291;28;20918;-74
2024/01/09 09:58:41;;;;;;;14.67;9.40;;;;;;;-3.30;97.43;99028.53;5116341;28;20453;-74
2024/01/09 10:01:12;;;;;;;12.53;7.43;;;;;;;-3.24;96.19;99024.66;5116860;28;20454;-74
2024/01/09 10:03:48;;;;;;;12.23;8.10;;;;;;;-3.28;94.50;99023.22;5116588;28;20415;-74
2024/01/09 10:06:15;;;;;;;12.63;8.43;;;;;;;-3.24;93.61;99017.72;5116244;28;20439;-74
2024/01/09 10:08:43;;;;;;;13.50;8.40;;;;;;;-3.22;94.23;99021.03;5116265;28;20438;-74
2024/01/09 10:11:10;;;;;;;12.70;7.70;;;;;;;-3.02;78.52;99004.78;5116316;28;20454;-74
2024/01/09 10:13:37;;;;;;;14.07;7.77;;;;;;;-2.90;71.83;99013.47;5116271;28;20432;-74
2024/01/09 10:16:03;;;;;;;12.07;8.53;;;;;;;-2.91;69.85;99011.81;5116154;28;20538;-74
2024/01/09 10:18:31;;;;;;;14.17;8.40;;;;;;;-2.98;72.04;99010.63;5116090;28;20428;-74
2024/01/09 10:20:59;;;;;;;13.77;7.77;;;;;;;-2.90;71.60;99011.72;5114973;28;20457;-74
2024/01/09 10:23:27;;;;;;;12.93;8.13;;;;;;;-2.93;69.62;99017.13;5116469;28;20500;-74
2024/01/09 10:25:55;;;;;;;12.53;8.27;;;;;;;-2.83;69.83;99012.94;5115971;28;20439;-74
2024/01/09 10:28:22;;;;;;;14.57;8.50;;;;;;;-2.73;68.26;99011.31;5116092;28;20433;-74
2024/01/09 10:30:52;;;;;;;11.50;8.33;;;;;;;-2.72;68.40;99012.97;5116135;28;20490;-74
2024/01/09 10:33:18;;;;;;;12.10;8.10;;;;;;;-2.64;68.64;99012.38;5115791;28;20420;-74
2024/01/09 10:35:45;;;;;;;12.60;7.10;;;;;;;-2.57;67.94;99005.81;5115778;28;20436;-74
2024/01/09 10:38:12;;;;;;;14.03;8.13;;;;;;;-2.61;67.57;99006.97;5115650;28;20439;-74
2024/01/09 10:40:38;;;;;;;13.20;8.73;;;;;;;-2.70;67.23;98999.84;5115458;28;20821;-74
2024/01/09 10:43:05;;;;;;;12.77;7.67;;;;;;;-2.51;65.71;98993.16;5115791;28;20428;-74
2024/01/09 10:45:32;;;;;;;11.40;8.23;;;;;;;-2.48;68.53;98995.50;5115194;28;20776;-74
2024/01/09 10:47:59;;;;;;;11.73;8.33;;;;;;;-2.42;67.53;99002.88;5114864;28;20427;-74
2024/01/09 10:50:26;;;;;;;12.30;7.67;;;;;;;-2.36;64.96;98998.97;5115186;28;20490;-74
2024/01/09 10:52:53;;;;;;;14.60;8.63;;;;;;;-2.39;64.64;98997.41;5114940;27;20922;-74
2024/01/09 10:55:21;;;;;;;11.83;8.10;;;;;;;-2.45;65.56;98994.44;5115301;27;20587;-74
2024/01/09 10:57:48;;;;;;;11.97;8.17;;;;;;;-2.32;64.03;98992.59;5115199;28;20431;-74
2024/01/09 11:00:16;;;;;;;13.83;8.27;;;;;;;-2.29;65.71;98995.81;5115168;28;20982;-74
2024/01/09 11:02:42;;;;;;;11.93;7.50;;;;;;;-2.30;65.10;98999.34;5115836;28;20488;-74
2024/01/09 11:05:10;;;;;;;13.60;7.90;;;;;;;-2.28;66.31;98992.25;5115363;28;20445;-74
2024/01/09 11:07:38;;;;;;;12.10;6.90;;;;;;;-2.06;62.43;98994.03;5114905;28;20511;-74
2024/01/09 11:10:06;;;;;;;10.57;7.33;;;;;;;-2.07;64.33;98989.78;5114556;28;20491;-74
2024/01/09 11:12:36;;;;;;;11.50;8.17;;;;;;;-1.96;64.35;98998.44;5114484;28;20954;-74
2024/01/09 11:15:18;;;;;;;13.03;7.90;;;;;;;-2.02;63.62;98985.88;5115040;28;20422;-74
2024/01/09 11:17:49;;;;;;;12.17;7.97;;;;;;;-1.95;65.66;98988.81;5115098;28;20413;-74
2024/01/09 11:20:17;;;;;;;10.83;7.53;;;;;;;-2.06;64.67;98981.84;5114623;28;20466;-74